createdAt,value
2022-08-09T00:00:06.866Z,85.37
2022-08-09T00:01:10.239Z,85.66
2022-08-09T00:02:06.928Z,85.66
2022-08-09T00:04:00.793Z,85.75
2022-08-09T00:04:24.983Z,85.75
2022-08-09T00:06:18.224Z,85.95
2022-08-09T00:06:18.730Z,86.05
2022-08-09T00:07:10.466Z,86.24
2022-08-09T00:08:09.895Z,85.75
2022-08-09T00:09:07.058Z,86.14
2022-08-09T00:10:07.083Z,86.14
2022-08-09T00:11:24.325Z,86.24
2022-08-09T00:12:07.134Z,86.24
2022-08-09T00:13:17.059Z,86.33
2022-08-09T00:14:07.168Z,86.24
2022-08-09T00:15:07.191Z,86.24
2022-08-09T00:16:07.208Z,85.66
2022-08-09T00:17:07.235Z,86.33
2022-08-09T00:18:11.172Z,86.33
2022-08-09T00:19:10.204Z,85.66
2022-08-09T00:20:07.300Z,85.75
2022-08-09T00:21:07.932Z,86.33
2022-08-09T00:22:07.339Z,85.95
2022-08-09T00:23:53.853Z,85.66
2022-08-09T00:24:07.384Z,85.66
2022-08-09T00:25:08.491Z,85.85
2022-08-09T00:26:07.428Z,85.75
2022-08-09T00:27:07.449Z,86.38
2022-08-09T00:28:07.470Z,85.66
2022-08-09T00:29:12.349Z,85.89
2022-08-09T00:30:24.900Z,85.75
2022-08-09T00:31:30.418Z,85.37
2022-08-09T00:32:07.566Z,85.57
2022-08-09T00:33:07.580Z,85.51
2022-08-09T00:34:07.602Z,85.99
2022-08-09T00:35:07.638Z,86.18
2022-08-09T00:36:07.645Z,86.09
2022-08-09T00:37:07.668Z,86.18
2022-08-09T00:38:07.687Z,86.09
2022-08-09T00:39:16.940Z,85.89
2022-08-09T00:40:13.020Z,85.80
2022-08-09T00:41:08.262Z,85.80
2022-08-09T00:44:15.773Z,85.89
2022-08-09T00:44:16.261Z,85.89
2022-08-09T00:44:17.923Z,85.32
2022-08-09T00:45:15.828Z,85.51
2022-08-09T00:46:07.864Z,85.41
2022-08-09T00:47:07.886Z,85.80
2022-08-09T00:48:07.905Z,85.71
2022-08-09T00:49:07.936Z,85.99
2022-08-09T00:50:07.951Z,85.89
2022-08-09T00:51:10.224Z,85.99
2022-08-09T00:52:17.684Z,86.38
2022-08-09T00:53:08.832Z,86.38
2022-08-09T00:54:08.038Z,86.18
2022-08-09T00:55:08.060Z,86.09
2022-08-09T00:56:09.810Z,86.18
2022-08-09T00:57:10.334Z,86.47
2022-08-09T00:58:09.059Z,87.15
2022-08-09T00:59:08.143Z,87.05
2022-08-09T01:00:21.092Z,86.47
2022-08-09T01:01:08.294Z,86.85
2022-08-09T01:02:08.211Z,86.95
2022-08-09T01:03:08.234Z,86.85
2022-08-09T01:04:08.255Z,86.38
2022-08-09T01:05:14.117Z,86.76
2022-08-09T01:06:17.551Z,86.38
2022-08-09T01:07:08.320Z,86.85
2022-08-09T01:08:08.344Z,86.18
2022-08-09T01:09:09.680Z,86.76
2022-08-09T01:10:08.388Z,86.57
2022-08-09T01:11:08.796Z,86.47
2022-08-09T01:12:08.547Z,86.47
2022-08-09T01:13:08.453Z,86.38
2022-08-09T01:14:10.018Z,86.38
2022-08-09T01:15:10.058Z,86.47
2022-08-09T01:16:08.526Z,86.47
2022-08-09T01:17:09.011Z,86.38
2022-08-09T01:18:08.587Z,86.47
2022-08-09T01:19:17.100Z,86.66
2022-08-09T01:20:08.611Z,86.47
2022-08-09T01:21:09.901Z,86.47
2022-08-09T01:22:10.322Z,86.66
2022-08-09T01:24:00.711Z,86.57
2022-08-09T01:24:08.693Z,86.47
2022-08-09T01:25:08.716Z,86.18
2022-08-09T01:26:08.736Z,86.76
2022-08-09T01:27:08.759Z,86.47
2022-08-09T01:28:08.780Z,86.76
2022-08-09T01:29:08.803Z,86.76
2022-08-09T01:30:08.822Z,86.47
2022-08-09T01:31:08.845Z,86.38
2022-08-09T01:32:31.528Z,86.38
2022-08-09T01:33:10.129Z,86.57
2022-08-09T01:34:09.031Z,86.28
2022-08-09T01:35:28.456Z,86.38
2022-08-09T01:36:08.956Z,86.09
2022-08-09T01:37:08.977Z,86.18
2022-08-09T01:38:14.750Z,86.57
2022-08-09T01:39:09.060Z,85.99
2022-08-09T01:40:09.044Z,86.28
2022-08-09T01:41:09.068Z,86.28
2022-08-09T01:42:11.129Z,86.28
2022-08-09T01:43:09.111Z,86.18
2022-08-09T01:44:09.137Z,86.09
2022-08-09T01:45:09.153Z,86.38
2022-08-09T01:46:09.175Z,86.38
2022-08-09T01:47:11.611Z,86.28
2022-08-09T01:48:09.217Z,86.18
2022-08-09T01:49:09.986Z,86.47
2022-08-09T01:50:09.263Z,86.57
2022-08-09T01:51:09.285Z,86.47
2022-08-09T01:52:09.305Z,86.66
2022-08-09T01:53:19.337Z,87.43
2022-08-09T01:54:09.347Z,87.15
2022-08-09T01:55:09.372Z,87.34
2022-08-09T01:56:09.392Z,87.15
2022-08-09T01:57:09.418Z,87.24
2022-08-09T01:58:09.434Z,87.24
2022-08-09T01:59:09.459Z,87.19
2022-08-09T02:00:35.174Z,87.29
2022-08-09T02:01:09.516Z,87.10
2022-08-09T02:02:09.618Z,87.58
2022-08-09T02:03:11.344Z,87.58
2022-08-09T02:04:09.568Z,87.58
2022-08-09T02:05:15.837Z,87.68
2022-08-09T02:06:09.611Z,87.10
2022-08-09T02:07:18.286Z,87.49
2022-08-09T02:08:39.106Z,87.39
2022-08-09T02:09:09.678Z,87.19
2022-08-09T02:10:09.698Z,86.81
2022-08-09T02:11:16.881Z,87.29
2022-08-09T02:12:09.741Z,87.29
2022-08-09T02:13:09.760Z,87.29
2022-08-09T02:14:09.788Z,87.96
2022-08-09T02:15:11.995Z,88.06
2022-08-09T02:16:09.829Z,87.77
2022-08-09T02:17:54.931Z,88.25
2022-08-09T02:18:10.927Z,88.16
2022-08-09T02:19:09.898Z,88.25
2022-08-09T02:20:09.915Z,88.35
2022-08-09T02:21:09.935Z,87.96
2022-08-09T02:22:09.957Z,88.16
2022-08-09T02:23:09.978Z,88.25
2022-08-09T02:24:10.000Z,87.96
2022-08-09T02:25:10.022Z,87.77
2022-08-09T02:26:26.961Z,87.96
2022-08-09T02:27:10.063Z,87.77
2022-08-09T02:28:10.088Z,88.06
2022-08-09T02:29:10.109Z,87.77
2022-08-09T02:30:10.127Z,87.58
2022-08-09T02:31:10.152Z,87.58
2022-08-09T02:32:10.174Z,88.16
2022-08-09T02:33:14.488Z,87.77
2022-08-09T02:34:13.749Z,88.06
2022-08-09T02:35:17.455Z,87.87
2022-08-09T02:36:10.476Z,88.16
2022-08-09T02:37:12.198Z,88.16
2022-08-09T02:38:10.302Z,88.93
2022-08-09T02:39:14.327Z,87.96
2022-08-09T02:40:10.730Z,88.25
2022-08-09T02:41:10.368Z,88.25
2022-08-09T02:42:10.389Z,88.54
2022-08-09T02:43:10.412Z,88.54
2022-08-09T02:44:13.737Z,88.16
2022-08-09T02:45:10.459Z,88.16
2022-08-09T02:46:10.478Z,88.06
2022-08-09T02:47:10.498Z,87.96
2022-08-09T02:48:12.237Z,87.77
2022-08-09T02:49:10.541Z,88.06
2022-08-09T02:50:10.562Z,88.16
2022-08-09T02:51:10.586Z,88.25
2022-08-09T02:52:10.611Z,88.25
2022-08-09T02:53:10.628Z,87.96
2022-08-09T02:54:10.655Z,88.93
2022-08-09T02:55:20.414Z,88.83
2022-08-09T02:56:10.696Z,89.02
2022-08-09T02:57:14.017Z,89.12
2022-08-09T02:58:32.589Z,89.69
2022-08-09T02:59:13.821Z,89.22
2022-08-09T03:00:25.145Z,89.40
2022-08-09T03:01:15.209Z,89.12
2022-08-09T03:02:16.687Z,89.02
2022-08-09T03:03:10.849Z,89.40
2022-08-09T03:04:16.962Z,89.40
2022-08-09T03:05:10.890Z,89.02
2022-08-09T03:06:10.912Z,89.02
2022-08-09T03:07:14.157Z,89.12
2022-08-09T03:08:10.956Z,89.60
2022-08-09T03:09:10.975Z,89.60
2022-08-09T03:10:10.998Z,89.12
2022-08-09T03:11:11.019Z,89.12
2022-08-09T03:12:13.497Z,89.12
2022-08-09T03:13:11.067Z,89.50
2022-08-09T03:14:11.085Z,88.93
2022-08-09T03:15:11.118Z,89.12
2022-08-09T03:16:11.130Z,88.93
2022-08-09T03:17:16.447Z,89.12
2022-08-09T03:18:11.174Z,88.35
2022-08-09T03:19:16.674Z,88.45
2022-08-09T03:20:11.787Z,88.93
2022-08-09T03:21:11.239Z,88.93
2022-08-09T03:22:12.266Z,89.50
2022-08-09T03:23:15.228Z,89.22
2022-08-09T03:24:11.303Z,89.02
2022-08-09T03:25:26.989Z,89.69
2022-08-09T03:26:11.346Z,89.60
2022-08-09T03:27:11.368Z,89.31
2022-08-09T03:28:11.580Z,89.50
2022-08-09T03:29:22.511Z,89.60
2022-08-09T03:30:11.447Z,89.02
2022-08-09T03:31:22.572Z,89.02
2022-08-09T03:32:11.486Z,89.22
2022-08-09T03:33:17.945Z,89.50
2022-08-09T03:34:12.017Z,90.08
2022-08-09T03:35:15.092Z,89.89
2022-08-09T03:36:16.169Z,89.89
2022-08-09T03:37:55.177Z,89.79
2022-08-09T03:38:11.610Z,89.89
2022-08-09T03:39:11.664Z,89.98
2022-08-09T03:40:13.222Z,89.98
2022-08-09T03:41:15.642Z,89.89
2022-08-09T03:42:11.694Z,90.27
2022-08-09T03:43:11.715Z,90.17
2022-08-09T03:44:12.140Z,90.66
2022-08-09T03:45:11.759Z,90.17
2022-08-09T03:46:19.859Z,90.66
2022-08-09T03:47:11.804Z,90.46
2022-08-09T03:48:11.824Z,90.46
2022-08-09T03:49:11.845Z,90.75
2022-08-09T03:50:11.867Z,90.66
2022-08-09T03:51:55.588Z,90.27
2022-08-09T03:52:11.912Z,90.37
2022-08-09T03:53:11.934Z,90.46
2022-08-09T03:54:11.970Z,90.27
2022-08-09T03:55:14.361Z,90.66
2022-08-09T03:56:11.999Z,90.94
2022-08-09T03:57:18.244Z,91.04
2022-08-09T03:58:16.421Z,90.66
2022-08-09T03:59:17.000Z,90.84
2022-08-09T04:00:12.084Z,90.75
2022-08-09T04:01:12.154Z,90.66
2022-08-09T04:02:12.129Z,90.37
2022-08-09T04:03:19.683Z,90.46
2022-08-09T04:04:14.664Z,91.04
2022-08-09T04:05:17.094Z,90.56
2022-08-09T04:06:12.216Z,90.46
2022-08-09T04:07:12.239Z,90.66
2022-08-09T04:08:12.257Z,90.46
2022-08-09T04:09:15.135Z,90.75
2022-08-09T04:10:12.305Z,90.94
2022-08-09T04:11:12.323Z,90.66
2022-08-09T04:12:30.639Z,90.75
2022-08-09T04:13:12.368Z,90.94
2022-08-09T04:14:52.975Z,90.84
2022-08-09T04:15:17.156Z,90.84
2022-08-09T04:16:19.801Z,91.04
2022-08-09T04:17:12.454Z,91.13
2022-08-09T04:18:18.042Z,91.23
2022-08-09T04:19:15.819Z,91.23
2022-08-09T04:20:12.645Z,91.33
2022-08-09T04:21:12.542Z,91.23
2022-08-09T04:22:13.199Z,91.13
2022-08-09T04:23:16.859Z,91.23
2022-08-09T04:24:12.607Z,91.23
2022-08-09T04:25:13.034Z,91.52
2022-08-09T04:26:12.651Z,91.47
2022-08-09T04:27:12.674Z,91.23
2022-08-09T04:28:12.693Z,91.47
2022-08-09T04:29:15.725Z,91.13
2022-08-09T04:30:12.736Z,91.33
2022-08-09T04:31:13.070Z,91.13
2022-08-09T04:32:12.779Z,91.56
2022-08-09T04:33:12.802Z,91.23
2022-08-09T04:34:12.824Z,91.13
2022-08-09T04:35:12.847Z,91.85
2022-08-09T04:36:12.869Z,91.47
2022-08-09T04:37:12.890Z,91.37
2022-08-09T04:38:12.911Z,91.95
2022-08-09T04:39:12.961Z,91.81
2022-08-09T04:40:19.717Z,91.81
2022-08-09T04:41:12.980Z,91.71
2022-08-09T04:42:15.830Z,91.95
2022-08-09T04:43:13.693Z,91.66
2022-08-09T04:44:14.586Z,91.75
2022-08-09T04:45:13.096Z,91.66
2022-08-09T04:46:19.432Z,91.75
2022-08-09T04:47:13.109Z,91.85
2022-08-09T04:48:13.130Z,91.37
2022-08-09T04:49:14.879Z,90.99
2022-08-09T04:50:13.173Z,91.18
2022-08-09T04:51:13.197Z,91.28
2022-08-09T04:52:18.622Z,91.18
2022-08-09T04:53:13.868Z,91.28
2022-08-09T04:54:13.263Z,91.37
2022-08-09T04:55:13.283Z,92.24
2022-08-09T04:56:13.307Z,92.14
2022-08-09T04:57:13.330Z,91.95
2022-08-09T04:58:13.359Z,92.05
2022-08-09T04:59:15.701Z,91.75
2022-08-09T05:00:13.395Z,91.66
2022-08-09T05:01:16.423Z,91.75
2022-08-09T05:02:13.440Z,91.56
2022-08-09T05:03:40.362Z,91.47
2022-08-09T05:04:13.524Z,91.18
2022-08-09T05:05:13.505Z,91.37
2022-08-09T05:06:27.422Z,91.32
2022-08-09T05:07:19.352Z,91.18
2022-08-09T05:08:14.001Z,90.84
2022-08-09T05:09:13.593Z,90.55
2022-08-09T05:10:13.614Z,90.17
2022-08-09T05:11:13.636Z,89.88
2022-08-09T05:12:13.661Z,89.59
2022-08-09T05:13:14.231Z,89.59
2022-08-09T05:14:14.664Z,89.40
2022-08-09T05:15:24.705Z,89.78
2022-08-09T05:16:14.904Z,89.30
2022-08-09T05:17:15.408Z,89.11
2022-08-09T05:18:50.351Z,88.82
2022-08-09T05:19:13.814Z,88.73
2022-08-09T05:20:13.838Z,88.63
2022-08-09T05:21:23.117Z,88.34
2022-08-09T05:22:28.413Z,88.24
2022-08-09T05:23:53.934Z,88.00
2022-08-09T05:24:13.926Z,87.86
2022-08-09T05:25:15.139Z,87.81
2022-08-09T05:26:22.274Z,87.62
2022-08-09T05:27:13.995Z,88.29
2022-08-09T05:28:14.017Z,87.81
2022-08-09T05:29:17.317Z,88.00
2022-08-09T05:30:14.302Z,88.10
2022-08-09T05:31:14.083Z,88.48
2022-08-09T05:32:14.106Z,88.10
2022-08-09T05:33:14.129Z,87.95
2022-08-09T05:34:16.702Z,87.95
2022-08-09T05:35:14.174Z,88.24
2022-08-09T05:36:14.864Z,87.85
2022-08-09T05:37:14.220Z,88.24
2022-08-09T05:38:21.739Z,87.95
2022-08-09T05:39:14.295Z,87.95
2022-08-09T05:40:14.314Z,88.53
2022-08-09T05:41:14.316Z,88.62
2022-08-09T05:42:18.023Z,88.14
2022-08-09T05:43:14.355Z,87.56
2022-08-09T05:44:14.379Z,88.14
2022-08-09T05:45:14.901Z,87.66
2022-08-09T05:46:14.425Z,87.46
2022-08-09T05:47:14.451Z,87.76
2022-08-09T05:48:14.472Z,87.22
2022-08-09T05:50:24.208Z,86.83
2022-08-09T05:50:32.094Z,86.65
2022-08-09T05:51:30.173Z,86.35
2022-08-09T05:52:14.572Z,85.10
2022-08-09T05:53:21.840Z,85.58
2022-08-09T05:54:14.610Z,85.97
2022-08-09T05:55:21.017Z,86.35
2022-08-09T05:56:16.160Z,86.45
2022-08-09T05:57:14.680Z,86.35
2022-08-09T05:58:18.326Z,86.01
2022-08-09T05:59:15.127Z,85.34
2022-08-09T06:00:14.748Z,84.38
2022-08-09T06:01:15.971Z,83.99
2022-08-09T06:02:17.119Z,84.18
2022-08-09T06:03:19.899Z,83.89
2022-08-09T06:04:14.861Z,84.28
2022-08-09T06:05:14.863Z,84.86
2022-08-09T06:06:14.887Z,84.47
2022-08-09T06:07:21.183Z,84.38
2022-08-09T06:08:19.712Z,84.47
2022-08-09T06:09:41.106Z,84.28
2022-08-09T06:10:15.867Z,84.47
2022-08-09T06:11:17.271Z,84.18
2022-08-09T06:12:15.027Z,83.70
2022-08-09T06:13:18.849Z,84.09
2022-08-09T06:14:15.072Z,83.89
2022-08-09T06:15:15.096Z,84.12
2022-08-09T06:16:15.124Z,83.99
2022-08-09T06:17:15.144Z,84.09
2022-08-09T06:18:15.759Z,83.26
2022-08-09T06:19:15.198Z,83.41
2022-08-09T06:20:18.272Z,83.36
2022-08-09T06:21:16.196Z,83.26
2022-08-09T06:22:15.614Z,82.97
2022-08-09T06:23:15.681Z,83.07
2022-08-09T06:24:15.309Z,82.97
2022-08-09T06:25:16.201Z,82.49
2022-08-09T06:26:15.359Z,82.29
2022-08-09T06:27:15.568Z,82.10
2022-08-09T06:28:15.402Z,82.97
2022-08-09T06:29:15.429Z,82.87
2022-08-09T06:30:16.086Z,82.43
2022-08-09T06:31:15.474Z,81.85
2022-08-09T06:32:53.429Z,81.85
2022-08-09T06:33:40.081Z,81.70
2022-08-09T06:34:15.546Z,81.41
2022-08-09T06:35:15.571Z,81.22
2022-08-09T06:36:15.598Z,80.83
2022-08-09T06:37:15.621Z,80.16
2022-08-09T06:38:15.820Z,80.35
2022-08-09T06:39:15.718Z,80.20
2022-08-09T06:40:22.021Z,79.72
2022-08-09T06:41:18.709Z,80.33
2022-08-09T06:42:15.739Z,80.53
2022-08-09T06:43:15.765Z,80.66
2022-08-09T06:44:18.242Z,79.31
2022-08-09T06:46:05.939Z,78.48
2022-08-09T06:46:40.302Z,77.90
2022-08-09T06:47:15.866Z,77.94
2022-08-09T06:48:16.600Z,77.26
2022-08-09T06:49:16.125Z,75.95
2022-08-09T06:50:18.913Z,74.79
2022-08-09T06:51:15.967Z,73.95
2022-08-09T06:52:16.129Z,72.89
2022-08-09T06:53:16.024Z,72.50
2022-08-09T06:54:16.048Z,72.53
2022-08-09T06:55:16.074Z,71.47
2022-08-09T06:56:16.102Z,70.70
2022-08-09T06:57:16.129Z,70.89
2022-08-09T07:00:47.407Z,71.02
2022-08-09T07:00:52.843Z,69.67
2022-08-09T07:00:54.686Z,70.73
2022-08-09T07:01:16.269Z,69.67
2022-08-09T07:02:16.790Z,69.57
2022-08-09T07:03:16.289Z,68.99
2022-08-09T07:04:20.173Z,69.08
2022-08-09T07:05:16.345Z,69.21
2022-08-09T07:06:16.369Z,68.44
2022-08-09T07:07:58.424Z,67.66
2022-08-09T07:08:16.423Z,67.18
2022-08-09T07:09:57.215Z,66.89
2022-08-09T07:10:30.015Z,67.37
2022-08-09T07:11:23.503Z,67.08
2022-08-09T07:12:17.436Z,66.89
2022-08-09T07:13:27.597Z,67.18
2022-08-09T07:14:16.586Z,67.27
2022-08-09T07:15:53.792Z,67.11
2022-08-09T07:16:41.866Z,67.11
2022-08-09T07:17:16.667Z,66.53
2022-08-09T07:18:16.693Z,66.34
2022-08-09T07:19:22.979Z,66.47
2022-08-09T07:20:16.754Z,65.69
2022-08-09T07:21:16.777Z,65.40
2022-08-09T07:22:16.802Z,65.59
2022-08-09T07:23:18.557Z,65.69
2022-08-09T07:24:16.858Z,65.11
2022-08-09T07:25:16.885Z,64.92
2022-08-09T07:26:16.910Z,65.40
2022-08-09T07:27:26.695Z,64.82
2022-08-09T07:28:19.108Z,64.36
2022-08-09T07:29:16.995Z,64.75
2022-08-09T07:30:17.019Z,64.46
2022-08-09T07:31:17.049Z,64.36
2022-08-09T07:32:17.078Z,63.42
2022-08-09T07:33:17.114Z,63.32
2022-08-09T07:34:20.446Z,62.97
2022-08-09T07:35:17.160Z,62.58
2022-08-09T07:36:17.189Z,62.58
2022-08-09T07:37:17.222Z,62.41
2022-08-09T07:38:17.245Z,61.83
2022-08-09T07:39:20.505Z,61.64
2022-08-09T07:40:18.853Z,61.44
2022-08-09T07:41:17.468Z,61.47
2022-08-09T07:42:17.361Z,61.57
2022-08-09T07:43:17.459Z,61.96
2022-08-09T07:44:17.423Z,61.47
2022-08-09T07:45:23.618Z,61.67
2022-08-09T07:46:19.117Z,61.64
2022-08-09T07:47:17.504Z,61.44
2022-08-09T07:48:28.301Z,61.05
2022-08-09T07:49:17.565Z,61.41
2022-08-09T07:50:17.593Z,61.32
2022-08-09T07:52:03.472Z,61.41
2022-08-09T07:52:18.151Z,61.00
2022-08-09T07:53:17.677Z,61.71
2022-08-09T07:54:27.581Z,61.48
2022-08-09T07:55:17.734Z,61.68
2022-08-09T07:56:26.871Z,61.29
2022-08-09T07:57:17.790Z,62.55
2022-08-09T07:58:17.818Z,63.29
2022-08-09T07:59:24.986Z,63.39
2022-08-09T08:00:20.723Z,62.81
2022-08-09T08:01:17.931Z,63.59
2022-08-09T08:02:19.664Z,62.68
2022-08-09T08:03:17.956Z,63.36
2022-08-09T08:04:17.984Z,64.53
2022-08-09T08:05:18.958Z,65.66
2022-08-09T08:06:21.070Z,65.69
2022-08-09T08:08:44.350Z,65.89
2022-08-09T08:09:01.314Z,64.92
2022-08-09T08:09:38.509Z,64.14
2022-08-09T08:10:18.366Z,65.11
2022-08-09T08:12:09.953Z,65.01
2022-08-09T08:12:27.721Z,64.17
2022-08-09T08:13:18.232Z,64.07
2022-08-09T08:14:18.259Z,63.01
2022-08-09T08:15:18.285Z,63.59
2022-08-09T08:16:31.785Z,62.91
2022-08-09T08:17:35.549Z,62.62
2022-08-09T08:18:18.371Z,61.74
2022-08-09T08:19:18.401Z,62.91
2022-08-09T08:20:19.513Z,63.78
2022-08-09T08:21:18.455Z,63.01
2022-08-09T08:22:18.485Z,61.32
2022-08-09T08:23:18.511Z,60.87
2022-08-09T08:24:18.542Z,60.68
2022-08-09T08:25:19.382Z,60.45
2022-08-09T08:26:18.593Z,60.35
2022-08-09T08:27:18.781Z,60.74
2022-08-09T08:28:32.351Z,61.13
2022-08-09T08:29:20.350Z,61.42
2022-08-09T08:30:18.776Z,60.94
2022-08-09T08:31:18.734Z,61.42
2022-08-09T08:32:24.274Z,61.13
2022-08-09T08:33:23.937Z,61.81
2022-08-09T08:34:20.944Z,61.81
2022-08-09T08:35:18.966Z,62.10
2022-08-09T08:36:28.516Z,61.78
2022-08-09T08:37:18.895Z,61.49
2022-08-09T08:38:18.923Z,61.29
2022-08-09T08:39:18.993Z,60.91
2022-08-09T08:40:19.128Z,60.78
2022-08-09T08:41:19.006Z,60.68
2022-08-09T08:42:19.031Z,61.17
2022-08-09T08:43:19.058Z,61.85
2022-08-09T08:44:27.311Z,61.55
2022-08-09T08:45:19.205Z,62.62
2022-08-09T08:46:33.312Z,62.62
2022-08-09T08:47:19.166Z,61.65
2022-08-09T08:48:19.731Z,62.10
2022-08-09T08:49:19.277Z,62.30
2022-08-09T08:50:19.288Z,62.98
2022-08-09T08:51:19.274Z,62.88
2022-08-09T08:52:58.521Z,62.49
2022-08-09T08:53:21.844Z,62.30
2022-08-09T08:54:20.469Z,62.49
2022-08-09T08:55:23.366Z,62.59
2022-08-09T08:56:27.936Z,62.40
2022-08-09T08:57:19.428Z,62.59
2022-08-09T08:58:19.488Z,62.40
2022-08-09T08:59:20.539Z,62.59
2022-08-09T09:00:27.369Z,62.69
2022-08-09T09:01:24.615Z,62.69
2022-08-09T09:02:30.938Z,62.59
2022-08-09T09:03:22.988Z,62.01
2022-08-09T09:04:26.923Z,62.49
2022-08-09T09:05:19.633Z,62.49
2022-08-09T09:06:19.661Z,62.49
2022-08-09T09:07:19.684Z,62.49
2022-08-09T09:08:30.438Z,62.40
2022-08-09T09:09:21.302Z,62.79
2022-08-09T09:10:19.760Z,63.46
2022-08-09T09:11:19.990Z,62.10
2022-08-09T09:12:19.814Z,63.07
2022-08-09T09:13:19.840Z,63.65
2022-08-09T09:14:19.872Z,63.75
2022-08-09T09:15:28.507Z,63.17
2022-08-09T09:16:29.967Z,63.95
2022-08-09T09:17:19.940Z,62.69
2022-08-09T09:18:19.966Z,62.98
2022-08-09T09:19:40.291Z,62.49
2022-08-09T09:20:21.489Z,63.07
2022-08-09T09:21:25.925Z,63.27
2022-08-09T09:22:26.761Z,62.79
2022-08-09T09:23:20.093Z,62.79
2022-08-09T09:24:21.771Z,63.56
2022-08-09T09:26:03.013Z,63.37
2022-08-09T09:26:20.169Z,63.56
2022-08-09T09:28:04.525Z,63.59
2022-08-09T09:28:21.317Z,63.10
2022-08-09T09:29:20.245Z,62.52
2022-08-09T09:30:39.836Z,62.33
2022-08-09T09:32:03.828Z,62.33
2022-08-09T09:32:20.322Z,60.97
2022-08-09T09:33:20.353Z,60.58
2022-08-09T09:34:20.379Z,61.26
2022-08-09T09:35:20.400Z,61.26
2022-08-09T09:36:21.261Z,61.26
2022-08-09T09:37:20.455Z,61.26
2022-08-09T09:38:27.772Z,60.88
2022-08-09T09:39:20.530Z,60.88
2022-08-09T09:40:20.626Z,60.30
2022-08-09T09:41:20.554Z,60.10
2022-08-09T09:42:20.578Z,60.78
2022-08-09T09:43:20.605Z,60.39
2022-08-09T09:44:25.592Z,60.49
2022-08-09T09:45:25.739Z,60.71
2022-08-09T09:47:21.370Z,60.42
2022-08-09T09:48:20.733Z,60.13
2022-08-09T09:49:32.003Z,60.03
2022-08-09T09:50:23.005Z,59.94
2022-08-09T09:51:26.016Z,59.36
2022-08-09T09:52:37.262Z,59.26
2022-08-09T09:53:20.861Z,58.97
2022-08-09T09:54:21.258Z,58.39
2022-08-09T09:55:28.169Z,58.97
2022-08-09T09:56:31.697Z,59.45
2022-08-09T09:58:02.865Z,59.16
2022-08-09T09:58:20.990Z,58.61
2022-08-09T09:59:21.017Z,58.41
2022-08-09T10:00:22.018Z,58.90
2022-08-09T10:01:36.829Z,58.03
2022-08-09T10:02:21.101Z,57.93
2022-08-09T10:03:21.149Z,57.93
2022-08-09T10:04:22.972Z,58.03
2022-08-09T10:05:22.890Z,57.73
2022-08-09T10:06:21.205Z,57.54
2022-08-09T10:07:21.230Z,58.15
2022-08-09T10:08:27.343Z,57.76
2022-08-09T10:09:22.182Z,56.98
2022-08-09T10:10:21.320Z,57.01
2022-08-09T10:12:00.703Z,57.01
2022-08-09T10:12:43.660Z,57.01
2022-08-09T10:13:24.708Z,56.56
2022-08-09T10:14:30.626Z,56.16
2022-08-09T10:15:25.582Z,56.46
2022-08-09T10:16:57.702Z,56.10
2022-08-09T10:17:39.638Z,56.49
2022-08-09T10:18:21.541Z,56.22
2022-08-09T10:19:21.571Z,55.05
2022-08-09T10:20:27.531Z,55.08
2022-08-09T10:21:21.631Z,54.89
2022-08-09T10:22:39.528Z,54.79
2022-08-09T10:23:22.045Z,54.23
2022-08-09T10:24:25.726Z,54.03
2022-08-09T10:25:21.762Z,54.46
2022-08-09T10:26:21.781Z,52.31
2022-08-09T10:27:28.715Z,52.04
2022-08-09T10:28:21.845Z,52.34
2022-08-09T10:30:27.235Z,52.34
2022-08-09T10:32:49.640Z,50.53
2022-08-09T10:34:07.711Z,50.36
2022-08-09T10:34:33.909Z,50.56
2022-08-09T10:35:22.077Z,50.68
2022-08-09T10:36:22.107Z,50.68
2022-08-09T10:37:22.141Z,49.92
2022-08-09T10:38:43.165Z,49.43
2022-08-09T10:39:22.272Z,49.55
2022-08-09T10:40:33.695Z,49.46
2022-08-09T10:41:22.280Z,49.58
2022-08-09T10:42:22.312Z,49.21
2022-08-09T10:43:22.348Z,49.02
2022-08-09T10:44:23.070Z,47.85
2022-08-09T10:45:22.418Z,48.04
2022-08-09T10:46:25.314Z,48.14
2022-08-09T10:48:25.936Z,47.40
2022-08-09T10:48:30.064Z,47.30
2022-08-09T10:49:22.558Z,47.40
2022-08-09T10:50:27.287Z,47.91
2022-08-09T10:51:29.890Z,47.42
2022-08-09T10:52:22.664Z,46.86
2022-08-09T10:53:23.174Z,46.78
2022-08-09T10:54:22.737Z,45.73
2022-08-09T10:55:22.894Z,45.16
2022-08-09T10:56:23.191Z,44.47
2022-08-09T10:57:22.846Z,44.67
2022-08-09T10:58:25.627Z,45.18
2022-08-09T10:59:23.362Z,45.38
2022-08-09T11:00:22.955Z,44.81
2022-08-09T11:03:11.676Z,44.81
2022-08-09T11:03:14.819Z,44.64
2022-08-09T11:03:46.949Z,44.07
2022-08-09T11:04:31.612Z,43.57
2022-08-09T11:05:25.277Z,43.30
2022-08-09T11:06:23.229Z,42.32
2022-08-09T11:07:23.218Z,42.71
2022-08-09T11:08:30.254Z,42.14
2022-08-09T11:09:23.293Z,42.24
2022-08-09T11:10:23.329Z,42.24
2022-08-09T11:11:23.414Z,41.94
2022-08-09T11:12:29.463Z,42.26
2022-08-09T11:13:49.522Z,41.89
2022-08-09T11:14:27.964Z,41.20
2022-08-09T11:15:23.922Z,41.09
2022-08-09T11:16:33.619Z,40.80
2022-08-09T11:17:23.776Z,40.51
2022-08-09T11:18:23.633Z,41.27
2022-08-09T11:19:23.671Z,41.00
2022-08-09T11:20:23.736Z,41.09
2022-08-09T11:21:23.745Z,41.39
2022-08-09T11:22:24.322Z,41.39
2022-08-09T11:23:29.902Z,41.02
2022-08-09T11:24:23.857Z,40.82
2022-08-09T11:25:25.969Z,40.53
2022-08-09T11:26:23.932Z,41.14
2022-08-09T11:27:25.411Z,41.63
2022-08-09T11:28:30.461Z,40.74
2022-08-09T11:30:05.625Z,40.84
2022-08-09T11:30:33.373Z,40.15
2022-08-09T11:31:33.775Z,39.84
2022-08-09T11:32:24.156Z,40.41
2022-08-09T11:33:24.194Z,40.61
2022-08-09T11:34:24.229Z,40.78
2022-08-09T11:35:34.883Z,41.06
2022-08-09T11:36:30.351Z,41.16
2022-08-09T11:37:24.339Z,41.55
2022-08-09T11:38:32.275Z,41.65
2022-08-09T11:39:24.457Z,41.55
2022-08-09T11:40:24.447Z,41.35
2022-08-09T11:41:24.482Z,41.06
2022-08-09T11:42:24.518Z,41.17
2022-08-09T11:43:24.554Z,40.48
2022-08-09T11:44:24.591Z,40.90
2022-08-09T11:45:37.961Z,40.90
2022-08-09T11:46:32.803Z,40.63
2022-08-09T11:47:24.702Z,39.86
2022-08-09T11:48:26.582Z,39.76
2022-08-09T11:49:28.185Z,39.56
2022-08-09T11:50:55.856Z,39.56
2022-08-09T11:52:56.727Z,39.65
2022-08-09T11:53:03.701Z,39.58
2022-08-09T11:53:58.874Z,39.68
2022-08-09T11:54:33.361Z,39.97
2022-08-09T11:55:51.505Z,39.79
2022-08-09T11:56:42.593Z,39.79
2022-08-09T11:57:28.564Z,38.92
2022-08-09T11:58:32.426Z,37.94
2022-08-09T11:59:30.446Z,37.96
2022-08-09T12:00:27.483Z,38.06
2022-08-09T12:01:37.479Z,37.94
2022-08-09T12:02:37.381Z,38.06
2022-08-09T12:03:55.098Z,38.06
2022-08-09T12:04:32.186Z,37.94
2022-08-09T12:05:25.434Z,38.45
2022-08-09T12:06:26.594Z,38.37
2022-08-09T12:07:25.457Z,38.07
2022-08-09T12:08:25.495Z,37.49
2022-08-09T12:09:25.535Z,37.71
2022-08-09T12:10:39.414Z,37.71
2022-08-09T12:11:25.613Z,37.60
2022-08-09T12:12:38.408Z,37.48
2022-08-09T12:14:10.832Z,37.77
2022-08-09T12:14:36.503Z,37.76
2022-08-09T12:15:50.296Z,38.06
2022-08-09T12:16:37.693Z,37.94
2022-08-09T12:17:33.920Z,37.94
2022-08-09T12:18:30.918Z,38.15
2022-08-09T12:19:25.917Z,37.85
2022-08-09T12:20:25.961Z,37.72
2022-08-09T12:21:28.527Z,37.72
2022-08-09T12:22:26.178Z,37.88
2022-08-09T12:23:56.414Z,38.56
2022-08-09T12:24:26.106Z,38.64
2022-08-09T12:25:37.649Z,39.23
2022-08-09T12:26:26.666Z,39.40
2022-08-09T12:29:09.804Z,39.66
2022-08-09T12:29:13.385Z,39.39
2022-08-09T12:29:33.132Z,40.03
2022-08-09T12:30:35.217Z,40.63
2022-08-09T12:31:57.955Z,40.21
2022-08-09T12:32:29.870Z,40.69
2022-08-09T12:33:50.923Z,40.88
2022-08-09T12:34:26.462Z,41.16
2022-08-09T12:35:26.495Z,41.35
2022-08-09T12:36:31.790Z,41.43
2022-08-09T12:37:29.074Z,41.63
2022-08-09T12:38:29.847Z,41.82
2022-08-09T12:39:26.678Z,42.10
2022-08-09T12:40:26.667Z,42.19
2022-08-09T12:41:26.699Z,42.68
2022-08-09T12:42:26.770Z,42.86
2022-08-09T12:44:05.258Z,43.15
2022-08-09T12:44:26.798Z,43.52
2022-08-09T12:45:33.796Z,43.72
2022-08-09T12:46:26.877Z,43.92
2022-08-09T12:47:26.896Z,44.29
2022-08-09T12:48:33.544Z,44.29
2022-08-09T12:49:26.967Z,44.29
2022-08-09T12:50:27.005Z,44.38
2022-08-09T12:51:30.494Z,44.48
2022-08-09T12:52:42.677Z,44.68
2022-08-09T12:53:35.237Z,44.58
2022-08-09T12:54:27.120Z,44.38
2022-08-09T12:56:13.964Z,44.41